Time;durP1;ratioP1;P1;durP2;ratioP2;P2;SDS_P1;SDS_P2;PMS_P1;PMS_P2;Temp;Humidity;BMP_temperature;BMP_pressure;BME280_temperature;BME280_humidity;BME280_pressure;Samples;Min_cycle;Max_cycle;Signal;HPM_P1;HPM_P2
2022/12/23 00:00:16;;;;;;;11.73;2.77;;;10.60;99.90;;;;;;5045565;28;20270;-72
2022/12/23 00:02:41;;;;;;;9.97;2.83;;;10.60;99.90;;;;;;5050999;28;20900;-72
2022/12/23 00:05:07;;;;;;;4.00;1.90;;;10.60;99.90;;;;;;5045710;28;20185;-72
2022/12/23 00:07:33;;;;;;;5.57;2.10;;;10.60;99.90;;;;;;5047407;28;20683;-72
2022/12/23 00:09:59;;;;;;;5.20;2.20;;;10.50;99.90;;;;;;5040868;28;20210;-71
2022/12/23 00:15:10;;;;;;;6.67;1.80;;;10.50;99.90;;;;;;5038029;28;20376;-72
2022/12/23 00:17:41;;;;;;;4.10;1.90;;;10.60;99.90;;;;;;5051717;28;20408;-71
2022/12/23 00:20:08;;;;;;;4.27;1.80;;;10.50;99.90;;;;;;5048517;28;21004;-71
2022/12/23 00:25:17;;;;;;;4.90;2.20;;;10.60;99.90;;;;;;5043663;28;20520;-71
2022/12/23 00:28:00;;;;;;;5.00;1.70;;;10.60;99.90;;;;;;5048623;28;20412;-72
2022/12/23 00:30:26;;;;;;;5.20;1.90;;;10.60;99.90;;;;;;5045710;28;20200;-72
2022/12/23 00:32:52;;;;;;;6.43;1.60;;;10.70;99.90;;;;;;5050147;28;20538;-71
2022/12/23 00:35:17;;;;;;;6.83;2.00;;;10.70;99.90;;;;;;5044423;28;20526;-71
2022/12/23 00:37:43;;;;;;;3.53;1.77;;;10.70;99.90;;;;;;5044845;28;20212;-71
2022/12/23 00:42:56;;;;;;;4.90;2.07;;;10.70;99.90;;;;;;5049097;28;20614;-71
2022/12/23 00:45:22;;;;;;;5.37;1.90;;;10.70;99.90;;;;;;5045356;28;20428;-71
2022/12/23 00:50:34;;;;;;;3.17;1.80;;;10.70;99.90;;;;;;5045982;28;20286;-72
2022/12/23 00:53:00;;;;;;;12.53;2.67;;;10.70;99.90;;;;;;5040886;28;20439;-72
2022/12/23 00:55:25;;;;;;;9.73;1.60;;;10.70;99.90;;;;;;5050428;28;20503;-71
2022/12/23 00:57:51;;;;;;;5.10;1.60;;;10.70;99.90;;;;;;5036366;28;20189;-71
2022/12/23 01:00:17;;;;;;;7.00;2.00;;;10.80;99.90;;;;;;5057837;28;20204;-71
2022/12/23 01:05:36;;;;;;;6.40;1.90;;;10.80;99.90;;;;;;5050453;28;20449;-71
2022/12/23 01:08:07;;;;;;;2.63;1.90;;;10.80;99.90;;;;;;5047013;28;20891;-72
2022/12/23 01:10:37;;;;;;;6.20;2.10;;;10.80;99.90;;;;;;5039835;28;20448;-71
2022/12/23 01:13:03;;;;;;;7.70;1.90;;;10.90;99.90;;;;;;5041004;28;20435;-71
2022/12/23 01:15:29;;;;;;;7.10;2.07;;;10.90;99.90;;;;;;5050323;28;20422;-72
2022/12/23 01:17:55;;;;;;;7.90;2.10;;;10.90;99.90;;;;;;5046216;28;20448;-72
2022/12/23 01:20:20;;;;;;;3.13;1.70;;;11.00;99.90;;;;;;5044646;28;20200;-71
2022/12/23 01:22:46;;;;;;;4.43;1.77;;;11.00;99.90;;;;;;5040928;28;20201;-71
2022/12/23 01:25:12;;;;;;;2.20;1.70;;;11.00;99.90;;;;;;5048187;28;20214;-72
2022/12/23 01:27:37;;;;;;;2.90;1.90;;;11.00;99.90;;;;;;5036748;28;20259;-71
2022/12/23 01:30:04;;;;;;;6.20;2.03;;;11.00;99.90;;;;;;5043320;28;20522;-71
2022/12/23 01:32:29;;;;;;;8.33;1.97;;;11.10;99.90;;;;;;5045530;28;20212;-72
2022/12/23 01:34:55;;;;;;;6.30;1.97;;;11.10;99.90;;;;;;5041307;28;20436;-72
2022/12/23 01:37:21;;;;;;;4.50;1.70;;;11.20;99.90;;;;;;5033060;28;20188;-71
2022/12/23 01:39:46;;;;;;;2.90;1.70;;;11.20;99.90;;;;;;5037908;28;20228;-71
2022/12/23 01:45:05;;;;;;;4.17;1.93;;;11.10;99.90;;;;;;5041465;28;20218;-72
2022/12/23 01:47:38;;;;;;;6.30;2.03;;;11.20;99.90;;;;;;5044654;28;20857;-72
2022/12/23 01:50:36;;;;;;;4.00;1.87;;;11.20;99.90;;;;;;5040529;28;20459;-71
2022/12/23 01:53:20;;;;;;;4.73;2.10;;;11.20;99.90;;;;;;5030893;28;20442;-72
2022/12/23 01:55:53;;;;;;;3.77;2.13;;;11.30;99.90;;;;;;5038468;28;20415;-72
2022/12/23 01:58:29;;;;;;;3.00;2.20;;;11.20;99.90;;;;;;5030414;28;20470;-70
2022/12/23 02:03:41;;;;;;;7.43;2.40;;;11.20;99.90;;;;;;5039874;28;20902;-72
2022/12/23 02:09:17;;;;;;;9.90;2.10;;;11.30;99.90;;;;;;5046242;28;20443;-72
2022/12/23 02:11:48;;;;;;;3.47;1.90;;;11.30;99.90;;;;;;5037323;28;20433;-72
2022/12/23 02:17:59;;;;;;;4.20;1.90;;;11.30;99.90;;;;;;5045351;28;20512;-71
2022/12/23 02:20:59;;;;;;;5.90;2.43;;;11.30;99.90;;;;;;5047135;28;20899;-71
2022/12/23 02:23:37;;;;;;;6.50;2.20;;;11.30;99.90;;;;;;5048666;28;20451;-72
2022/12/23 02:26:21;;;;;;;4.47;2.07;;;11.40;99.90;;;;;;5038695;28;20518;-72
2022/12/23 02:29:06;;;;;;;4.20;1.90;;;11.40;99.90;;;;;;5042480;28;20451;-71
2022/12/23 02:31:57;;;;;;;5.00;2.17;;;11.40;99.90;;;;;;5043832;28;20681;-72
2022/12/23 02:34:29;;;;;;;7.07;2.07;;;11.40;99.90;;;;;;5040983;28;20436;-72
2022/12/23 02:37:06;;;;;;;5.00;1.63;;;11.40;99.90;;;;;;5047202;28;20763;-72
2022/12/23 02:39:50;;;;;;;8.23;2.00;;;11.50;99.90;;;;;;5036528;28;20479;-72
2022/12/23 02:42:19;;;;;;;4.27;1.90;;;11.50;99.90;;;;;;5041880;28;20418;-72
2022/12/23 02:45:06;;;;;;;4.73;1.87;;;11.50;99.90;;;;;;5041512;28;20836;-72
2022/12/23 02:47:40;;;;;;;5.80;2.13;;;11.50;99.90;;;;;;5041934;28;20811;-71
2022/12/23 02:50:14;;;;;;;3.43;1.70;;;11.50;99.90;;;;;;5041095;28;20456;-71
2022/12/23 02:52:43;;;;;;;2.43;1.50;;;11.50;99.90;;;;;;5043888;28;20554;-70
2022/12/23 02:55:15;;;;;;;3.40;1.60;;;11.50;99.90;;;;;;5043847;28;20472;-72
2022/12/23 02:57:44;;;;;;;2.43;1.80;;;11.50;99.90;;;;;;5045511;28;20407;-72
2022/12/23 03:00:11;;;;;;;5.33;1.73;;;11.50;99.90;;;;;;5039473;28;20673;-72
2022/12/23 03:02:38;;;;;;;3.20;1.87;;;11.50;99.90;;;;;;5045491;28;20757;-71
2022/12/23 03:05:05;;;;;;;5.80;1.80;;;11.50;99.90;;;;;;5044142;28;20443;-70
2022/12/23 03:07:41;;;;;;;4.37;1.73;;;11.50;99.90;;;;;;5041341;28;20766;-72
2022/12/23 03:10:27;;;;;;;3.33;1.53;;;11.50;99.90;;;;;;5041214;28;20959;-72
2022/12/23 03:13:13;;;;;;;10.60;2.03;;;11.50;99.90;;;;;;5036395;28;20922;-72
2022/12/23 03:15:56;;;;;;;4.03;1.80;;;11.50;99.90;;;;;;5037700;28;20612;-72
2022/12/23 03:18:31;;;;;;;1.53;1.30;;;11.50;99.90;;;;;;5049240;28;20956;-72
2022/12/23 03:21:16;;;;;;;2.20;1.50;;;11.50;99.90;;;;;;5036327;28;20474;-69
2022/12/23 03:23:48;;;;;;;7.50;1.77;;;11.60;99.90;;;;;;5046451;28;20474;-71
2022/12/23 03:26:36;;;;;;;3.03;1.67;;;11.60;99.90;;;;;;5039242;28;20432;-72
2022/12/23 03:29:14;;;;;;;1.50;1.40;;;11.60;99.90;;;;;;5031508;28;20942;-72
2022/12/23 03:31:41;;;;;;;3.57;1.50;;;11.60;99.90;;;;;;5044599;28;20492;-72
2022/12/23 03:34:15;;;;;;;3.07;1.77;;;11.60;99.90;;;;;;5040383;28;20447;-71
2022/12/23 03:36:50;;;;;;;5.30;1.73;;;11.60;99.90;;;;;;5040726;28;20442;-72
2022/12/23 03:39:20;;;;;;;2.53;1.90;;;11.60;99.90;;;;;;5047264;28;21000;-72
2022/12/23 03:41:59;;;;;;;2.40;1.43;;;11.60;99.90;;;;;;5039731;28;20436;-72
2022/12/23 03:44:29;;;;;;;1.93;1.40;;;11.60;99.90;;;;;;5039680;28;20463;-71
2022/12/23 03:47:08;;;;;;;2.17;1.57;;;11.60;99.90;;;;;;5027817;28;20440;-72
2022/12/23 03:49:40;;;;;;;2.23;1.13;;;11.60;99.90;;;;;;5039714;28;20447;-72
2022/12/23 03:52:13;;;;;;;6.20;1.47;;;11.50;99.90;;;;;;5043327;28;20435;-72
2022/12/23 03:54:44;;;;;;;3.20;1.40;;;11.50;99.90;;;;;;5047106;28;20995;-71
2022/12/23 03:57:12;;;;;;;2.30;1.50;;;11.50;99.90;;;;;;5035579;28;20424;-72
2022/12/23 03:59:42;;;;;;;2.57;1.50;;;11.50;99.90;;;;;;5041197;28;20458;-70
2022/12/23 04:02:31;;;;;;;1.73;1.50;;;11.50;99.90;;;;;;5045923;28;20518;-71
2022/12/23 04:05:33;;;;;;;3.03;1.50;;;11.40;99.90;;;;;;5043386;28;20447;-72
2022/12/23 04:08:11;;;;;;;2.97;2.67;;;11.40;99.90;;;;;;5044267;28;20419;-72
2022/12/23 04:10:37;;;;;;;3.00;1.90;;;11.30;99.90;;;;;;5039336;28;20982;-71
2022/12/23 04:13:03;;;;;;;2.40;1.63;;;11.30;99.90;;;;;;5050926;28;20395;-72
2022/12/23 04:15:29;;;;;;;5.90;1.90;;;11.20;99.90;;;;;;5033440;28;20224;-72
2022/12/23 04:17:56;;;;;;;2.07;1.80;;;11.10;99.90;;;;;;5042941;28;20280;-71
2022/12/23 04:20:22;;;;;;;3.83;2.27;;;11.10;99.90;;;;;;5048796;28;20201;-71
2022/12/23 04:22:47;;;;;;;2.43;2.07;;;11.00;99.90;;;;;;5043441;28;21017;-72
2022/12/23 04:25:15;;;;;;;2.43;2.10;;;11.00;99.90;;;;;;5041668;28;20408;-72
2022/12/23 04:27:40;;;;;;;8.63;2.97;;;11.00;99.90;;;;;;5044585;28;20656;-71
2022/12/23 04:30:08;;;;;;;5.50;3.00;;;11.10;99.90;;;;;;5050972;28;20466;-72
2022/12/23 04:32:34;;;;;;;4.10;2.70;;;11.10;99.90;;;;;;5048178;28;20560;-71
2022/12/23 04:34:59;;;;;;;4.53;3.10;;;11.10;99.90;;;;;;5042675;28;20423;-71
2022/12/23 04:37:25;;;;;;;4.20;3.10;;;11.20;99.90;;;;;;5049564;28;20636;-72
2022/12/23 04:39:50;;;;;;;5.50;3.53;;;11.10;99.90;;;;;;5049511;28;20257;-69
2022/12/23 04:42:16;;;;;;;6.20;3.63;;;11.10;99.90;;;;;;5041227;28;20188;-71
2022/12/23 04:44:41;;;;;;;6.10;4.10;;;11.10;99.90;;;;;;5048237;28;20241;-72
2022/12/23 04:47:07;;;;;;;11.27;4.37;;;11.20;99.90;;;;;;5042756;28;20185;-71
2022/12/23 04:49:32;;;;;;;9.57;5.00;;;11.20;99.90;;;;;;5043881;28;20237;-72
2022/12/23 04:51:58;;;;;;;7.60;4.83;;;11.20;99.90;;;;;;5047426;28;20256;-71
2022/12/23 04:54:23;;;;;;;12.23;5.00;;;11.20;99.90;;;;;;5044137;28;20174;-70
2022/12/23 04:56:49;;;;;;;7.50;4.30;;;11.20;99.90;;;;;;5048801;28;20671;-71
2022/12/23 04:59:14;;;;;;;10.43;3.80;;;11.20;99.90;;;;;;5046761;28;20187;-71
2022/12/23 05:01:41;;;;;;;5.83;3.40;;;11.20;99.90;;;;;;5041805;28;20432;-71
2022/12/23 05:04:07;;;;;;;3.70;2.30;;;11.10;99.90;;;;;;5039403;28;20205;-71
2022/12/23 05:06:33;;;;;;;7.50;3.10;;;11.10;99.90;;;;;;5050622;28;20411;-72
2022/12/23 05:08:58;;;;;;;3.67;2.70;;;11.10;99.90;;;;;;5036755;28;20447;-69
2022/12/23 05:11:24;;;;;;;3.70;3.00;;;11.10;99.90;;;;;;5048493;28;20195;-72
2022/12/23 05:13:49;;;;;;;11.30;3.40;;;11.10;99.90;;;;;;5040599;28;20185;-71
2022/12/23 05:16:15;;;;;;;11.50;4.47;;;11.10;99.90;;;;;;5050158;28;20200;-71
2022/12/23 05:18:40;;;;;;;7.70;4.00;;;11.10;99.90;;;;;;5047628;28;20224;-72
2022/12/23 05:21:06;;;;;;;7.33;3.73;;;11.10;99.90;;;;;;5049605;28;20185;-71
2022/12/23 05:23:32;;;;;;;11.30;4.23;;;11.00;99.90;;;;;;5046058;28;20229;-72
2022/12/23 05:25:57;;;;;;;2.40;1.63;;;11.00;99.90;;;;;;5050081;28;20177;-71
2022/12/23 05:28:23;;;;;;;1.70;1.60;;;11.10;99.90;;;;;;5042956;28;20182;-72
2022/12/23 05:30:55;;;;;;;3.10;1.40;;;11.20;99.90;;;;;;5064544;28;20266;-71
2022/12/23 05:33:21;;;;;;;1.97;1.60;;;11.20;99.90;;;;;;5050639;28;20192;-72
2022/12/23 05:35:46;;;;;;;2.50;1.77;;;11.30;99.90;;;;;;5035438;28;20436;-72
2022/12/23 05:38:12;;;;;;;3.20;1.40;;;11.30;99.90;;;;;;5034261;28;20651;-72
2022/12/23 05:40:37;;;;;;;1.70;1.20;;;11.30;99.90;;;;;;5046049;28;20280;-71
2022/12/23 05:43:03;;;;;;;6.93;1.30;;;11.40;99.90;;;;;;5048831;28;20197;-72
2022/12/23 05:45:28;;;;;;;1.60;1.20;;;11.40;99.90;;;;;;5045979;28;20319;-72
2022/12/23 05:47:54;;;;;;;2.60;1.50;;;11.40;99.90;;;;;;5049071;28;20181;-72
2022/12/23 05:50:19;;;;;;;2.80;1.50;;;11.50;99.90;;;;;;5037772;28;20244;-71
2022/12/23 05:52:45;;;;;;;4.70;1.73;;;11.50;99.90;;;;;;5040816;28;20207;-72
2022/12/23 05:55:10;;;;;;;2.80;1.87;;;11.50;99.90;;;;;;5041436;28;20212;-72
2022/12/23 05:57:36;;;;;;;2.60;2.00;;;11.50;99.90;;;;;;5040901;28;20188;-71
2022/12/23 06:00:02;;;;;;;1.47;1.33;;;11.40;99.90;;;;;;5041981;28;20584;-71
2022/12/23 06:02:28;;;;;;;1.87;1.67;;;11.40;99.90;;;;;;5048923;28;20216;-71
2022/12/23 06:04:53;;;;;;;3.53;1.60;;;11.50;99.90;;;;;;5042713;28;20849;-71
2022/12/23 06:07:19;;;;;;;2.10;1.77;;;11.50;99.90;;;;;;5049510;28;20803;-71
2022/12/23 06:09:45;;;;;;;1.90;1.67;;;11.40;99.90;;;;;;5037916;28;20233;-71
2022/12/23 06:12:10;;;;;;;1.90;1.70;;;11.50;99.90;;;;;;5046866;28;20177;-72
2022/12/23 06:14:36;;;;;;;1.63;1.40;;;11.40;99.90;;;;;;5033613;28;20185;-71
2022/12/23 06:17:01;;;;;;;2.37;1.60;;;11.50;99.90;;;;;;5049207;28;20509;-71
2022/12/23 06:19:26;;;;;;;1.50;1.40;;;11.50;99.90;;;;;;5045394;28;20205;-72
2022/12/23 06:21:52;;;;;;;3.37;1.80;;;11.50;99.90;;;;;;5048442;28;20655;-71
2022/12/23 06:24:17;;;;;;;1.70;1.60;;;11.50;99.90;;;;;;5041092;28;20209;-72
2022/12/23 06:26:43;;;;;;;3.67;2.00;;;11.50;99.90;;;;;;5041595;28;20189;-71
2022/12/23 06:29:10;;;;;;;2.10;1.70;;;11.40;99.90;;;;;;5038830;28;20636;-71
2022/12/23 06:31:36;;;;;;;2.23;2.03;;;11.40;99.90;;;;;;5044760;28;20260;-71
2022/12/23 06:34:01;;;;;;;3.80;2.40;;;11.40;99.90;;;;;;5045273;28;20456;-71
2022/12/23 06:36:27;;;;;;;3.33;2.10;;;11.30;99.90;;;;;;5049011;28;20423;-71
2022/12/23 06:38:52;;;;;;;7.17;2.77;;;11.30;99.90;;;;;;5041765;28;20563;-72
2022/12/23 06:41:18;;;;;;;3.10;2.23;;;11.20;99.90;;;;;;5042332;28;20205;-71
2022/12/23 06:43:43;;;;;;;1.70;1.60;;;11.20;99.90;;;;;;5036459;28;20277;-71
2022/12/23 06:46:09;;;;;;;2.27;1.80;;;11.20;99.90;;;;;;5048441;28;20181;-72
2022/12/23 06:48:34;;;;;;;5.67;2.10;;;11.20;99.90;;;;;;5037715;28;20219;-71
2022/12/23 06:51:00;;;;;;;1.93;1.80;;;11.20;99.90;;;;;;5039944;28;20586;-70
2022/12/23 06:53:25;;;;;;;1.60;1.50;;;11.10;99.90;;;;;;5045133;28;20180;-72
2022/12/23 06:55:59;;;;;;;1.70;1.60;;;11.10;99.90;;;;;;5040063;28;20228;-70
2022/12/23 06:58:25;;;;;;;1.60;1.50;;;11.00;99.90;;;;;;5041401;28;20248;-73
2022/12/23 07:00:50;;;;;;;2.37;1.73;;;11.10;99.90;;;;;;5043651;28;21001;-70
2022/12/23 07:03:16;;;;;;;2.37;1.77;;;11.10;99.90;;;;;;5038421;28;20236;-71
2022/12/23 07:05:41;;;;;;;3.47;1.73;;;11.10;99.90;;;;;;5046849;28;20656;-69
2022/12/23 07:08:07;;;;;;;1.97;1.70;;;11.10;99.90;;;;;;5035994;28;20174;-71
2022/12/23 07:10:33;;;;;;;2.50;1.60;;;11.10;99.90;;;;;;5042266;28;20185;-71
2022/12/23 07:13:00;;;;;;;3.03;2.00;;;11.10;99.90;;;;;;5040271;28;20607;-71
2022/12/23 07:15:25;;;;;;;4.77;2.23;;;11.20;99.90;;;;;;5041001;28;20408;-71
2022/12/23 07:17:52;;;;;;;2.20;1.90;;;11.20;99.90;;;;;;5040170;28;20497;-71
2022/12/23 07:20:18;;;;;;;1.30;1.20;;;11.20;99.90;;;;;;5047896;28;20451;-71
2022/12/23 07:22:43;;;;;;;1.57;1.30;;;11.20;99.90;;;;;;5039703;28;21012;-71
2022/12/23 07:25:09;;;;;;;1.33;1.20;;;11.30;99.90;;;;;;5040839;28;20415;-71
2022/12/23 07:27:34;;;;;;;1.40;1.23;;;11.30;99.90;;;;;;5042282;28;20614;-71
2022/12/23 07:30:00;;;;;;;9.73;1.73;;;11.40;99.90;;;;;;5049824;28;20327;-72
2022/12/23 07:32:25;;;;;;;2.60;1.37;;;11.40;99.90;;;;;;5042209;28;20234;-72
2022/12/23 07:34:51;;;;;;;1.83;1.37;;;11.40;99.90;;;;;;5047310;28;20181;-69
2022/12/23 07:37:16;;;;;;;1.70;1.27;;;11.40;99.90;;;;;;5044863;28;20256;-71
2022/12/23 07:39:42;;;;;;;2.43;1.33;;;11.40;99.90;;;;;;5047179;28;20583;-71
2022/12/23 07:42:08;;;;;;;1.60;1.50;;;11.40;99.90;;;;;;5041800;28;20227;-71
2022/12/23 07:44:33;;;;;;;2.43;1.70;;;11.40;99.90;;;;;;5047770;28;20209;-71
2022/12/23 07:47:00;;;;;;;3.83;1.20;;;11.50;99.90;;;;;;5044024;28;20199;-71
2022/12/23 07:49:25;;;;;;;1.30;1.20;;;11.60;99.90;;;;;;5052188;28;20587;-71
2022/12/23 07:51:50;;;;;;;3.30;1.30;;;11.60;99.90;;;;;;5048840;28;20446;-71
2022/12/23 07:54:16;;;;;;;1.23;1.13;;;11.60;99.90;;;;;;5051271;28;20170;-72
2022/12/23 07:56:42;;;;;;;3.57;1.37;;;11.60;99.90;;;;;;5048077;28;20377;-71
2022/12/23 07:59:07;;;;;;;2.63;1.23;;;11.60;99.90;;;;;;5045233;28;20702;-70
2022/12/23 15:27:20;;;;;;;3.67;1.83;;;12.80;99.90;;;;;;5065034;28;20616;-70
2022/12/23 15:29:52;;;;;;;2.03;1.93;;;12.80;99.90;;;;;;5075119;28;20438;-70
2022/12/23 15:32:19;;;;;;;2.77;2.40;;;12.90;99.90;;;;;;5081263;28;20184;-70
2022/12/23 15:34:47;;;;;;;2.50;1.50;;;13.00;99.90;;;;;;5073627;28;21121;-70
2022/12/23 15:37:17;;;;;;;2.13;1.93;;;13.10;99.90;;;;;;5060609;28;21119;-70
2022/12/23 15:39:44;;;;;;;3.60;3.23;;;13.20;99.90;;;;;;5064293;28;20435;-70
2022/12/23 15:42:24;;;;;;;2.33;2.00;;;13.30;99.90;;;;;;5063605;28;20415;-70
2022/12/23 15:44:50;;;;;;;2.50;1.77;;;13.30;99.90;;;;;;5055380;28;20456;-70
2022/12/23 15:47:24;;;;;;;5.60;2.03;;;13.40;99.90;;;;;;5049396;28;20500;-70
2022/12/23 15:49:50;;;;;;;2.57;2.37;;;13.40;99.90;;;;;;5058713;28;20199;-71
2022/12/23 15:52:17;;;;;;;3.77;3.30;;;13.50;99.90;;;;;;5049204;28;20435;-70
2022/12/23 15:54:54;;;;;;;2.40;2.20;;;13.50;99.90;;;;;;5064536;28;20183;-70
2022/12/23 15:57:23;;;;;;;2.20;2.00;;;13.50;99.90;;;;;;5052841;28;20441;-71
2022/12/23 15:59:49;;;;;;;2.60;2.40;;;13.50;99.90;;;;;;5048091;28;20537;-71
2022/12/23 16:02:36;;;;;;;2.10;1.90;;;13.50;99.90;;;;;;5053967;28;21086;-70
2022/12/23 16:05:03;;;;;;;2.10;1.90;;;13.50;99.90;;;;;;5056506;28;20183;-70
2022/12/23 16:07:38;;;;;;;1.97;1.77;;;13.50;99.90;;;;;;5065528;28;20407;-70
2022/12/23 16:10:13;;;;;;;2.17;1.97;;;13.60;99.90;;;;;;5049921;28;20446;-72
2022/12/23 16:12:40;;;;;;;2.80;1.90;;;13.60;99.90;;;;;;5058536;28;20507;-70
2022/12/23 16:15:20;;;;;;;1.97;1.83;;;13.60;99.90;;;;;;5063798;28;20430;-70
2022/12/23 16:17:46;;;;;;;2.20;1.90;;;13.60;99.90;;;;;;5062846;28;21090;-71
2022/12/23 16:20:25;;;;;;;2.97;2.20;;;13.60;99.90;;;;;;5064951;28;20426;-71
2022/12/23 16:22:59;;;;;;;3.13;1.97;;;13.50;99.90;;;;;;5052409;28;20212;-72
2022/12/23 16:25:32;;;;;;;3.43;2.00;;;13.60;99.90;;;;;;5058360;28;20838;-71
2022/12/23 16:28:10;;;;;;;2.70;2.13;;;13.60;99.90;;;;;;5054748;28;20438;-71
2022/12/23 16:30:37;;;;;;;2.70;1.90;;;13.60;99.90;;;;;;5049033;28;20508;-70
2022/12/23 16:33:18;;;;;;;1.80;1.70;;;13.60;99.90;;;;;;5063561;28;20423;-71
2022/12/23 16:35:44;;;;;;;6.60;1.97;;;13.60;99.90;;;;;;5054291;28;20534;-71
2022/12/23 16:38:19;;;;;;;4.40;2.50;;;13.50;99.90;;;;;;5053242;28;20515;-71
2022/12/23 16:40:51;;;;;;;1.80;1.70;;;13.50;99.90;;;;;;5047367;28;20948;-71
2022/12/23 16:43:17;;;;;;;1.70;1.60;;;13.60;99.90;;;;;;5041810;28;20431;-71
2022/12/23 16:45:45;;;;;;;5.73;3.87;;;13.60;99.90;;;;;;5047101;28;20463;-71
2022/12/23 16:48:35;;;;;;;2.93;1.90;;;13.60;99.90;;;;;;5048612;28;20857;-71
2022/12/23 16:51:05;;;;;;;5.30;3.00;;;13.50;99.90;;;;;;5050622;28;20938;-69
2022/12/23 16:53:31;;;;;;;17.97;5.90;;;13.50;99.90;;;;;;5042949;28;20874;-71
2022/12/23 16:55:56;;;;;;;10.30;5.23;;;13.50;99.90;;;;;;5045381;28;20501;-72
2022/12/23 16:58:22;;;;;;;6.37;3.00;;;13.60;99.90;;;;;;5041550;28;20198;-71
2022/12/23 17:00:48;;;;;;;3.57;2.10;;;13.60;99.90;;;;;;5042720;28;20525;-71
2022/12/23 17:03:17;;;;;;;5.83;2.83;;;13.60;99.90;;;;;;5050470;28;20177;-70
2022/12/23 17:05:44;;;;;;;5.40;2.50;;;13.60;99.90;;;;;;5046877;28;20201;-70
2022/12/23 17:08:10;;;;;;;5.47;2.67;;;;;;;;;;5046530;28;20546;-71
2022/12/23 17:10:36;;;;;;;7.70;1.77;;;13.60;99.90;;;;;;5045498;28;20555;-70
2022/12/23 17:13:02;;;;;;;6.03;2.40;;;13.60;99.90;;;;;;5041543;28;20181;-71
2022/12/23 17:15:27;;;;;;;3.97;1.77;;;13.60;99.90;;;;;;5046566;28;20431;-71
2022/12/23 17:17:53;;;;;;;3.53;1.80;;;13.60;99.90;;;;;;5045255;28;20626;-71
2022/12/23 17:20:21;;;;;;;2.17;1.70;;;13.60;99.90;;;;;;5049102;28;20197;-71
2022/12/23 17:22:51;;;;;;;4.73;2.00;;;13.60;99.90;;;;;;5040281;28;20791;-71
2022/12/23 17:25:21;;;;;;;2.50;1.93;;;13.60;99.90;;;;;;5045857;28;20969;-70
2022/12/23 17:27:49;;;;;;;18.07;6.47;;;13.60;99.90;;;;;;5041229;28;20926;-72
2022/12/23 17:30:17;;;;;;;4.90;2.27;;;13.70;99.90;;;;;;5052853;28;20428;-70
2022/12/23 17:32:47;;;;;;;6.20;3.72;;;13.60;99.90;;;;;;5053148;28;21105;-71
2022/12/23 17:35:14;;;;;;;2.93;2.00;;;13.70;99.90;;;;;;5044209;28;20250;-71
2022/12/23 17:37:39;;;;;;;2.00;1.80;;;13.70;99.90;;;;;;5043764;28;20434;-71
2022/12/23 17:40:06;;;;;;;2.10;1.90;;;13.70;99.90;;;;;;5047160;28;20455;-71
2022/12/23 17:42:32;;;;;;;3.03;2.60;;;13.60;99.90;;;;;;5040847;28;20173;-71
2022/12/23 17:44:57;;;;;;;2.27;2.07;;;13.60;99.90;;;;;;5040145;28;20969;-71
2022/12/23 17:47:23;;;;;;;3.33;1.90;;;13.60;99.90;;;;;;5045169;28;20181;-71
2022/12/23 17:49:48;;;;;;;1.87;1.70;;;13.60;99.90;;;;;;5046358;28;20299;-71
2022/12/23 17:52:16;;;;;;;5.83;1.73;;;13.60;99.90;;;;;;5036998;28;20679;-70
2022/12/23 17:54:43;;;;;;;3.40;1.57;;;13.50;99.90;;;;;;5045653;28;20178;-69
2022/12/23 17:57:16;;;;;;;4.50;2.00;;;13.60;99.90;;;;;;5038770;28;20440;-69
2022/12/23 17:59:41;;;;;;;4.17;1.80;;;13.50;99.90;;;;;;5043011;28;20448;-69
2022/12/23 18:02:24;;;;;;;1.70;1.60;;;13.50;99.90;;;;;;5036004;28;20809;-69
2022/12/23 18:04:50;;;;;;;2.20;1.30;;;13.50;99.90;;;;;;5035530;28;20667;-70
2022/12/23 18:07:16;;;;;;;1.27;1.10;;;13.50;99.90;;;;;;5042400;28;20460;-69
2022/12/23 18:09:41;;;;;;;2.27;1.47;;;13.50;99.90;;;;;;5047033;28;20950;-70
2022/12/23 18:12:18;;;;;;;2.20;1.73;;;13.50;99.90;;;;;;5043586;28;20431;-71
2022/12/23 18:14:44;;;;;;;3.63;2.90;;;13.50;99.90;;;;;;5049498;28;20172;-70
2022/12/23 18:17:13;;;;;;;3.90;2.40;;;13.50;99.90;;;;;;5047787;28;20506;-70
2022/12/23 18:19:39;;;;;;;4.83;2.20;;;13.50;99.90;;;;;;5045301;28;20212;-71
2022/12/23 18:22:05;;;;;;;4.43;3.67;;;;;;;;;;5037211;28;20435;-70
2022/12/23 18:24:30;;;;;;;11.00;6.50;;;13.50;99.90;;;;;;5044694;28;20275;-71
2022/12/23 18:26:56;;;;;;;7.47;1.47;;;;;;;;;;5044506;28;20610;-70
2022/12/23 18:29:22;;;;;;;3.20;2.90;;;13.50;99.90;;;;;;5037354;28;20340;-70
2022/12/23 18:31:48;;;;;;;2.70;1.73;;;13.50;99.90;;;;;;5046497;28;20419;-71
2022/12/23 18:34:16;;;;;;;3.07;2.00;;;13.60;99.90;;;;;;5044790;28;20845;-71
2022/12/23 18:36:41;;;;;;;2.00;1.90;;;13.60;99.90;;;;;;5046245;28;20853;-70
2022/12/23 18:39:07;;;;;;;2.93;1.50;;;13.70;99.40;;;;;;5045980;28;20447;-70
2022/12/23 18:41:32;;;;;;;2.53;1.97;;;13.70;99.90;;;;;;5034150;28;20185;-69
2022/12/23 18:43:58;;;;;;;1.60;1.27;;;13.70;95.60;;;;;;5048666;28;20275;-70
2022/12/23 18:46:23;;;;;;;3.57;1.43;;;13.70;91.60;;;;;;5044448;28;20395;-70
2022/12/23 18:48:50;;;;;;;2.17;1.40;;;13.80;92.20;;;;;;5043008;28;20664;-70
2022/12/23 18:51:19;;;;;;;1.83;1.43;;;13.70;81.10;;;;;;5047201;28;20197;-71
2022/12/23 18:53:45;;;;;;;2.10;1.33;;;13.80;83.70;;;;;;5039929;28;20436;-69
2022/12/23 18:56:16;;;;;;;3.23;1.50;;;13.80;91.40;;;;;;5048744;28;20826;-69
2022/12/23 18:58:42;;;;;;;2.90;1.50;;;13.70;86.60;;;;;;5032758;28;20432;-69
2022/12/23 19:01:14;;;;;;;3.37;1.37;;;13.80;80.20;;;;;;5046999;28;20973;-71
2022/12/23 19:03:40;;;;;;;2.67;1.50;;;13.50;83.50;;;;;;5046998;28;20189;-70
2022/12/23 19:06:07;;;;;;;3.73;1.73;;;13.80;83.70;;;;;;5043733;28;20536;-68
2022/12/23 19:08:35;;;;;;;2.13;1.47;;;13.80;81.40;;;;;;5028540;28;20429;-70
2022/12/23 19:11:01;;;;;;;2.23;1.27;;;13.80;77.60;;;;;;5039376;28;20519;-69
2022/12/23 19:13:27;;;;;;;3.20;1.60;;;13.80;82.80;;;;;;5038205;28;20528;-69
2022/12/23 19:15:52;;;;;;;2.93;1.47;;;13.80;78.90;;;;;;5039887;28;20439;-71
2022/12/23 19:18:20;;;;;;;2.63;1.30;;;13.80;74.00;;;;;;5034905;28;20235;-70
2022/12/23 19:20:47;;;;;;;2.80;1.67;;;13.70;64.20;;;;;;5045877;28;20200;-69
2022/12/23 19:23:13;;;;;;;4.20;1.53;;;13.70;60.10;;;;;;5032995;28;20447;-71
2022/12/23 19:25:43;;;;;;;4.83;1.53;;;13.70;59.10;;;;;;5036903;28;20466;-71
2022/12/23 19:28:09;;;;;;;2.63;1.40;;;13.70;50.60;;;;;;5030594;28;20523;-70
2022/12/23 19:30:35;;;;;;;2.43;1.40;;;13.70;45.50;;;;;;5033321;28;20914;-69
2022/12/23 19:33:00;;;;;;;3.67;1.90;;;13.70;41.40;;;;;;5035948;28;20499;-70
2022/12/23 19:35:26;;;;;;;4.20;1.70;;;13.80;41.30;;;;;;5042294;28;20691;-71
2022/12/23 19:37:51;;;;;;;3.70;1.70;;;13.80;41.30;;;;;;5035412;28;20260;-72
2022/12/23 19:40:17;;;;;;;3.03;1.40;;;13.70;41.10;;;;;;5041656;28;20189;-71
2022/12/23 19:42:42;;;;;;;5.70;1.83;;;13.70;41.30;;;;;;5040179;28;20188;-70
2022/12/23 19:45:09;;;;;;;2.13;1.50;;;13.70;41.30;;;;;;5039383;28;20627;-71
2022/12/23 19:47:35;;;;;;;4.17;1.80;;;13.70;41.20;;;;;;5041258;28;20181;-70
2022/12/23 19:50:01;;;;;;;4.53;2.63;;;13.80;46.50;;;;;;5045403;28;20481;-71
2022/12/23 19:52:26;;;;;;;2.57;1.73;;;13.70;41.20;;;;;;5036181;28;20680;-71
2022/12/23 19:54:52;;;;;;;7.50;1.90;;;13.70;41.10;;;;;;5037321;28;20454;-70
2022/12/23 19:57:18;;;;;;;8.53;1.80;;;13.70;41.10;;;;;;5039209;28;20189;-71
2022/12/23 19:59:44;;;;;;;5.40;2.10;;;13.70;43.70;;;;;;5042366;28;20216;-70
2022/12/23 20:02:14;;;;;;;2.43;1.50;;;13.70;41.20;;;;;;5037820;28;20440;-71
2022/12/23 20:04:40;;;;;;;6.60;2.00;;;13.70;41.10;;;;;;5035540;28;20683;-71
2022/12/23 20:07:05;;;;;;;7.03;2.17;;;13.50;50.90;;;;;;5045809;28;20458;-71
2022/12/23 20:09:31;;;;;;;11.40;2.03;;;13.20;67.00;;;;;;5034453;28;20189;-70
2022/12/23 20:11:56;;;;;;;4.67;1.60;;;12.90;86.40;;;;;;5044812;28;20600;-70
2022/12/23 20:14:22;;;;;;;4.70;1.90;;;12.70;89.90;;;;;;5035502;28;20173;-70
2022/12/23 20:16:48;;;;;;;3.80;1.90;;;12.60;95.50;;;;;;5039254;28;20575;-70
2022/12/23 20:19:14;;;;;;;10.83;2.70;;;12.50;98.90;;;;;;5051231;28;20713;-72
2022/12/23 20:21:39;;;;;;;4.47;1.90;;;12.50;99.90;;;;;;5031539;28;20557;-71
2022/12/23 20:24:06;;;;;;;6.23;3.43;;;12.40;99.90;;;;;;5051496;28;20424;-71
2022/12/23 20:26:32;;;;;;;5.83;2.10;;;12.40;99.90;;;;;;5035443;28;20197;-70
2022/12/23 20:28:58;;;;;;;5.57;2.70;;;12.30;99.90;;;;;;5044804;28;20414;-71
2022/12/23 20:31:28;;;;;;;3.97;2.23;;;12.30;99.90;;;;;;5049507;28;20822;-71
2022/12/23 20:33:55;;;;;;;6.80;3.20;;;12.30;99.90;;;;;;5031707;28;20173;-71
2022/12/23 20:36:24;;;;;;;4.90;1.57;;;12.20;99.90;;;;;;5031511;28;20435;-71
2022/12/23 20:38:50;;;;;;;6.80;1.80;;;12.20;99.90;;;;;;5043937;28;20427;-71
2022/12/23 20:41:19;;;;;;;3.00;1.90;;;12.20;99.90;;;;;;5043824;28;20452;-71
2022/12/23 20:43:44;;;;;;;7.00;2.03;;;12.20;99.90;;;;;;5040538;28;20447;-70
2022/12/23 20:46:11;;;;;;;5.00;2.40;;;12.30;99.90;;;;;;5040412;28;21025;-71